Odell, Texas
Current Conditions -  °F | °C
As of 5:35 PM on Thursday 18 Dec 2014 (Local Time) from KF05 Reporting Station
Overcast Overcast  
Wind Chill: 42°   Ceiling: 1900
Heat Index: 46°   Visibility: 10mi
Dew Point: 37°   Wind: 7mph
Humidity: 69%   Direction: 40°NE
Pressure: 30.15"   Gusts: NA
Location:  34.35°N, 99.42°W
Report Text: KF05 182335Z AUTO 04006KT 10SM OVC019 08/03 A3015 RMK AO1 T00780025
Loading
Personal Weather Stations






























Interactive Weather Map New forecast layout! Learn more

10-Day Weather Forecast

Advertisements
Track Severe Weather on mobile